Terminal Aerodrome Forecast
Issued by NWS

Home | Current Version | Previous Version | Graphics & Text | Print | Product List | Glossary On
Versions: 1 2 3 4 5 6 7 8 9 10 11 12 13 14 15 16 17 18 19 20 21 22 23 24 25
000
FTUS43 KBIS 271730
TAFMOT
TAF
KMOT 271730Z 2718/2818 09008KT P6SM SCT110
     FM272000 11009KT P6SM VCTS SCT070CB
     FM280400 09007KT 4SM -SHRA VCTS BKN025CB
     FM280800 10006KT 2SM SHRA BR OVC009
     FM281500 27008KT P6SM BKN015=

USA.gov is the U.S. government's official web portal to all federal, state and local government web resources and services.